Time;durP1;ratioP1;P1;durP2;ratioP2;P2;SDS_P1;SDS_P2;PMS_P1;PMS_P2;Temp;Humidity;BMP_temperature;BMP_pressure;BME280_temperature;BME280_humidity;BME280_pressure;Samples;Min_cycle;Max_cycle;Signal;HPM_P1;HPM_P2
2023/03/23 00:02:24;;;;;;;10.55;5.00;;;13.10;99.90;;;;;;5030872;28;20034;-70
2023/03/23 00:04:50;;;;;;;5.83;4.63;;;13.10;99.90;;;;;;5033064;28;20038;-70
2023/03/23 00:07:20;;;;;;;8.57;5.20;;;13.00;99.90;;;;;;5032661;28;20355;-70
2023/03/23 00:09:53;;;;;;;6.70;5.18;;;13.10;99.90;;;;;;5032993;28;20044;-71
2023/03/23 00:12:32;;;;;;;8.30;5.72;;;13.10;99.90;;;;;;5026319;28;20034;-71
2023/03/23 00:15:06;;;;;;;8.27;5.68;;;13.10;99.90;;;;;;5012672;28;20026;-71
2023/03/23 00:17:35;;;;;;;10.40;5.93;;;13.10;99.90;;;;;;4991961;28;20042;-70
2023/03/23 00:20:04;;;;;;;8.13;6.43;;;13.10;99.90;;;;;;4992942;28;20094;-70
2023/03/23 00:22:30;;;;;;;7.05;6.45;;;13.10;99.90;;;;;;4993180;28;20085;-71
2023/03/23 00:24:56;;;;;;;6.95;6.45;;;13.10;99.90;;;;;;4991876;28;20038;-71
2023/03/23 00:27:22;;;;;;;7.47;6.78;;;13.10;99.90;;;;;;4993050;28;20026;-71
2023/03/23 00:29:52;;;;;;;6.10;5.55;;;13.10;99.90;;;;;;4997651;28;20486;-70
2023/03/23 00:32:26;;;;;;;6.75;5.80;;;13.10;99.90;;;;;;5029680;28;20036;-71
2023/03/23 00:34:53;;;;;;;11.02;6.00;;;13.00;99.90;;;;;;5032257;28;20037;-71
2023/03/23 00:37:20;;;;;;;11.45;6.15;;;13.10;99.90;;;;;;5032196;28;20037;-70
2023/03/23 00:39:46;;;;;;;6.38;5.68;;;13.10;99.90;;;;;;5032226;28;20029;-71
2023/03/23 00:42:13;;;;;;;8.18;5.97;;;13.10;99.90;;;;;;5032266;28;20053;-71
2023/03/23 00:44:40;;;;;;;9.98;6.63;;;13.10;99.90;;;;;;5032113;28;20045;-70
2023/03/23 00:47:07;;;;;;;6.75;6.05;;;13.10;99.90;;;;;;5031382;28;20033;-71
2023/03/23 00:49:34;;;;;;;9.05;6.45;;;13.10;99.90;;;;;;5031096;28;20041;-71
2023/03/23 00:52:00;;;;;;;6.63;5.95;;;13.10;99.90;;;;;;5031911;28;20048;-70
2023/03/23 00:54:27;;;;;;;6.43;5.68;;;13.10;99.90;;;;;;5030871;28;20057;-71
2023/03/23 00:56:53;;;;;;;8.13;5.75;;;13.00;99.90;;;;;;5030782;28;20033;-71
2023/03/23 00:59:19;;;;;;;7.60;6.13;;;13.00;99.90;;;;;;5032253;28;20044;-70
2023/03/23 01:01:45;;;;;;;6.68;6.07;;;13.00;99.90;;;;;;5031219;28;20064;-71
2023/03/23 01:04:12;;;;;;;6.50;6.00;;;13.00;99.90;;;;;;5031924;28;20030;-71
2023/03/23 01:06:40;;;;;;;6.88;6.20;;;13.00;99.90;;;;;;5032036;28;20036;-71
2023/03/23 01:09:07;;;;;;;7.68;6.88;;;13.00;99.90;;;;;;5030957;28;20022;-71
2023/03/23 01:11:34;;;;;;;6.50;5.90;;;13.00;99.90;;;;;;5032553;28;20028;-71
2023/03/23 01:14:01;;;;;;;8.75;5.60;;;12.90;99.90;;;;;;5015993;28;20033;-71
2023/03/23 01:16:27;;;;;;;6.90;6.20;;;12.90;99.90;;;;;;5015145;28;20045;-71
2023/03/23 01:18:53;;;;;;;7.10;6.20;;;13.00;99.90;;;;;;5015870;28;20026;-71
2023/03/23 01:21:19;;;;;;;6.93;5.82;;;12.90;99.90;;;;;;5015626;28;20018;-71
2023/03/23 01:23:45;;;;;;;9.18;5.95;;;12.90;99.90;;;;;;5015836;28;20048;-71
2023/03/23 01:26:16;;;;;;;6.90;5.15;;;12.90;99.90;;;;;;5015737;28;20493;-71
2023/03/23 01:28:42;;;;;;;7.72;5.72;;;12.90;99.90;;;;;;5015460;28;20038;-71
2023/03/23 01:31:11;;;;;;;6.53;4.80;;;12.90;99.90;;;;;;5029752;28;20040;-71
2023/03/23 01:33:38;;;;;;;5.05;4.38;;;12.90;99.90;;;;;;5035445;28;20482;-71
2023/03/23 01:36:06;;;;;;;6.47;4.60;;;12.90;99.90;;;;;;5035298;28;20026;-71
2023/03/23 01:38:33;;;;;;;7.28;5.05;;;12.90;99.90;;;;;;5034585;28;20517;-71
2023/03/23 01:40:59;;;;;;;6.32;4.53;;;12.90;99.90;;;;;;5035237;28;20022;-71
2023/03/23 01:43:25;;;;;;;5.05;4.53;;;12.90;99.90;;;;;;5035137;28;20045;-71
2023/03/23 01:45:51;;;;;;;5.65;4.75;;;12.90;99.90;;;;;;5034579;28;20033;-71
2023/03/23 01:48:35;;;;;;;5.20;3.97;;;12.80;99.90;;;;;;5035285;28;20505;-71
2023/03/23 01:51:04;;;;;;;4.00;3.65;;;12.80;99.90;;;;;;5034009;28;20056;-71
2023/03/23 01:53:40;;;;;;;5.25;4.07;;;12.80;99.90;;;;;;5035068;28;20029;-71
2023/03/23 01:56:07;;;;;;;5.72;3.83;;;12.80;99.90;;;;;;5017711;28;20037;-71
2023/03/23 01:58:33;;;;;;;6.57;4.22;;;12.80;99.90;;;;;;5017247;28;20038;-70
2023/03/23 02:01:06;;;;;;;6.65;4.07;;;12.80;99.90;;;;;;5034466;28;20037;-71
2023/03/23 02:03:32;;;;;;;4.78;4.30;;;12.80;99.90;;;;;;5018070;28;20382;-71
2023/03/23 02:05:58;;;;;;;7.22;4.75;;;12.80;99.90;;;;;;5033764;28;20030;-71
2023/03/23 02:08:27;;;;;;;5.38;4.97;;;12.80;99.90;;;;;;5034975;28;20041;-71
2023/03/23 02:10:54;;;;;;;6.32;4.70;;;12.80;99.90;;;;;;5017707;28;20037;-71
2023/03/23 02:13:20;;;;;;;4.85;4.45;;;12.80;99.90;;;;;;5019607;28;20053;-71
2023/03/23 02:15:52;;;;;;;7.10;5.00;;;12.80;99.90;;;;;;5013424;28;20034;-71
2023/03/23 02:18:38;;;;;;;4.97;4.40;;;12.80;99.90;;;;;;5014766;28;20052;-71
2023/03/23 02:21:36;;;;;;;5.32;4.53;;;12.80;99.90;;;;;;5015247;28;20038;-71
2023/03/23 02:24:23;;;;;;;4.97;4.53;;;12.70;99.90;;;;;;5014062;28;20050;-70
2023/03/23 02:26:58;;;;;;;5.30;4.55;;;12.70;99.90;;;;;;5014556;28;20029;-71
2023/03/23 02:29:36;;;;;;;6.97;4.55;;;12.80;99.90;;;;;;4998322;28;20030;-71
2023/03/23 02:32:23;;;;;;;6.45;5.05;;;12.90;99.90;;;;;;5033944;28;20033;-71
2023/03/23 02:34:50;;;;;;;6.50;4.78;;;12.80;99.90;;;;;;5033085;28;20037;-71
2023/03/23 02:37:29;;;;;;;4.75;4.25;;;12.90;99.90;;;;;;5034404;28;20037;-70
2023/03/23 02:40:08;;;;;;;6.13;4.60;;;12.80;99.90;;;;;;5033060;28;20044;-71
2023/03/23 02:42:34;;;;;;;5.60;5.10;;;12.80;99.90;;;;;;5018084;28;20048;-71
2023/03/23 02:45:03;;;;;;;6.13;5.40;;;12.80;99.90;;;;;;5016374;28;20048;-71
2023/03/23 02:47:29;;;;;;;6.25;5.72;;;12.80;99.90;;;;;;5032297;28;20038;-71
2023/03/23 02:49:56;;;;;;;6.82;5.53;;;12.80;99.90;;;;;;5032863;28;20029;-70
2023/03/23 02:52:27;;;;;;;6.43;5.82;;;12.80;99.90;;;;;;5016380;28;20061;-71
2023/03/23 02:54:53;;;;;;;;;;;12.80;99.90;;;;;;5016819;28;20036;-71
2023/03/23 02:57:20;;;;;;;6.70;5.90;;;12.80;99.90;;;;;;5032256;28;19913;-71
2023/03/23 02:59:46;;;;;;;7.07;6.38;;;12.80;99.90;;;;;;5032681;28;20033;-71
2023/03/23 03:02:29;;;;;;;7.38;6.57;;;12.80;99.90;;;;;;5033244;28;20029;-71
2023/03/23 03:05:27;;;;;;;6.97;6.28;;;12.90;99.90;;;;;;5016192;28;20381;-71
2023/03/23 03:08:20;;;;;;;7.28;6.38;;;12.80;99.90;;;;;;5032427;28;20064;-71
2023/03/23 03:10:48;;;;;;;6.70;5.93;;;12.90;99.90;;;;;;5032661;28;20026;-71
2023/03/23 03:13:19;;;;;;;7.47;6.35;;;12.90;99.90;;;;;;5019605;28;20026;-71
2023/03/23 03:15:59;;;;;;;7.43;6.50;;;12.90;99.90;;;;;;5012179;28;20026;-71
2023/03/23 03:18:29;;;;;;;7.32;6.55;;;12.90;99.90;;;;;;5012723;28;20064;-71
2023/03/23 03:20:58;;;;;;;6.90;6.20;;;12.90;99.90;;;;;;5029071;28;20038;-71
2023/03/23 03:23:24;;;;;;;10.55;6.72;;;12.90;99.90;;;;;;5013567;28;20038;-71
2023/03/23 03:25:50;;;;;;;9.13;6.45;;;12.90;99.90;;;;;;5012300;28;20030;-71
2023/03/23 03:28:17;;;;;;;9.10;6.30;;;12.90;99.90;;;;;;4996046;28;20041;-71
2023/03/23 03:30:44;;;;;;;8.15;6.38;;;12.90;99.90;;;;;;5023586;28;20033;-71
2023/03/23 03:33:12;;;;;;;7.80;6.00;;;12.90;99.90;;;;;;5032207;28;20053;-71
2023/03/23 03:35:38;;;;;;;7.95;6.13;;;12.90;99.90;;;;;;5032526;28;20037;-71
2023/03/23 03:38:09;;;;;;;9.70;6.13;;;12.90;99.90;;;;;;5031842;28;20045;-71
2023/03/23 03:40:35;;;;;;;8.07;5.50;;;13.00;99.90;;;;;;5032845;28;20033;-71
2023/03/23 03:43:01;;;;;;;8.85;5.60;;;12.90;99.90;;;;;;5033061;28;20036;-71
2023/03/23 03:45:27;;;;;;;6.57;5.78;;;13.00;99.90;;;;;;5032644;28;20029;-71
2023/03/23 03:47:53;;;;;;;6.53;5.32;;;12.90;99.90;;;;;;5032956;28;20037;-71
2023/03/23 03:50:19;;;;;;;8.25;5.97;;;12.90;99.90;;;;;;5032736;28;20072;-71
2023/03/23 03:52:45;;;;;;;6.70;5.35;;;13.00;99.90;;;;;;5033240;28;20387;-71
2023/03/23 03:55:12;;;;;;;8.13;5.57;;;12.90;99.90;;;;;;5032422;28;20041;-71
2023/03/23 03:57:38;;;;;;;6.55;5.20;;;13.00;99.90;;;;;;5033138;28;20056;-71
2023/03/23 04:00:24;;;;;;;6.13;5.03;;;12.90;99.90;;;;;;5032424;28;20489;-71
2023/03/23 04:02:54;;;;;;;7.97;4.95;;;12.90;99.90;;;;;;5032584;28;20355;-71
2023/03/23 04:05:24;;;;;;;6.07;4.60;;;12.90;99.90;;;;;;5032770;28;20045;-71
2023/03/23 04:07:51;;;;;;;6.28;5.28;;;12.90;99.90;;;;;;5033361;28;20042;-71
2023/03/23 04:10:21;;;;;;;9.50;5.50;;;12.90;99.90;;;;;;5032317;28;20045;-71
2023/03/23 04:12:48;;;;;;;7.57;5.07;;;12.90;99.90;;;;;;5022694;28;20033;-71
2023/03/23 04:15:15;;;;;;;10.05;5.72;;;12.90;99.90;;;;;;5012707;28;20030;-71
2023/03/23 04:17:42;;;;;;;7.65;5.47;;;12.90;99.90;;;;;;5012963;28;20057;-71
2023/03/23 04:20:17;;;;;;;8.57;6.10;;;12.90;99.90;;;;;;5012745;28;20049;-71
2023/03/23 04:22:44;;;;;;;7.30;4.93;;;12.90;99.90;;;;;;5012377;28;20112;-71
2023/03/23 04:25:12;;;;;;;6.60;4.95;;;12.90;99.90;;;;;;5012575;28;20416;-71
2023/03/23 04:27:39;;;;;;;5.07;4.10;;;12.90;99.90;;;;;;5012802;28;20045;-71
2023/03/23 04:30:06;;;;;;;6.10;3.95;;;12.90;99.90;;;;;;5017407;28;20024;-71
2023/03/23 04:32:32;;;;;;;7.22;4.03;;;12.90;99.90;;;;;;5032353;28;20490;-71
2023/03/23 04:34:59;;;;;;;7.90;4.78;;;12.80;99.90;;;;;;5031183;28;20041;-71
2023/03/23 04:37:28;;;;;;;7.47;4.82;;;12.80;99.90;;;;;;5032342;28;20494;-70
2023/03/23 04:40:00;;;;;;;5.90;5.38;;;12.80;99.90;;;;;;5032287;28;20041;-71
2023/03/23 04:42:30;;;;;;;8.82;4.68;;;12.90;99.90;;;;;;5032645;28;20045;-71
2023/03/23 04:44:57;;;;;;;12.00;4.80;;;12.80;99.90;;;;;;5032041;28;20096;-71
2023/03/23 04:47:23;;;;;;;4.97;4.35;;;12.80;99.90;;;;;;5035684;28;20048;-71
2023/03/23 04:49:51;;;;;;;6.82;4.65;;;12.80;99.90;;;;;;5036648;28;20034;-71
2023/03/23 04:52:17;;;;;;;9.30;5.18;;;12.80;99.90;;;;;;5036264;28;20049;-71
2023/03/23 04:54:44;;;;;;;5.35;4.88;;;12.90;99.90;;;;;;5035791;28;20025;-71
2023/03/23 04:57:12;;;;;;;8.35;4.95;;;12.90;99.90;;;;;;5036470;28;20060;-71
2023/03/23 04:59:38;;;;;;;6.60;4.15;;;12.90;99.90;;;;;;5035912;28;20033;-71
2023/03/23 05:02:04;;;;;;;7.90;4.18;;;12.90;99.90;;;;;;5035794;28;20470;-71
2023/03/23 05:04:31;;;;;;;8.43;4.68;;;12.80;99.90;;;;;;5036020;28;20033;-71
2023/03/23 05:06:57;;;;;;;8.05;4.85;;;12.80;99.90;;;;;;5035874;28;20120;-71
2023/03/23 05:09:23;;;;;;;9.00;5.03;;;12.80;99.90;;;;;;5035869;28;20458;-71
2023/03/23 05:11:49;;;;;;;14.88;5.50;;;12.90;99.90;;;;;;5033931;28;20041;-71
2023/03/23 05:14:16;;;;;;;8.80;4.65;;;12.90;99.90;;;;;;5016183;28;20030;-71
2023/03/23 05:16:42;;;;;;;7.22;4.93;;;12.90;99.90;;;;;;5015676;28;20053;-71
2023/03/23 05:19:08;;;;;;;6.70;4.80;;;12.80;99.90;;;;;;5016023;28;20477;-71
2023/03/23 05:21:34;;;;;;;7.80;4.95;;;12.80;99.90;;;;;;5015430;28;20042;-71
2023/03/23 05:24:00;;;;;;;9.68;4.63;;;12.80;99.90;;;;;;5015768;28;20053;-70
2023/03/23 05:26:28;;;;;;;10.68;5.07;;;12.80;99.90;;;;;;5015908;28;20510;-71
2023/03/23 05:28:55;;;;;;;11.38;5.97;;;12.80;99.90;;;;;;5015909;28;20022;-71
2023/03/23 05:31:22;;;;;;;9.98;5.07;;;12.70;99.90;;;;;;5032140;28;20036;-71
2023/03/23 05:33:48;;;;;;;9.05;4.93;;;12.70;99.90;;;;;;5035681;28;20041;-71
2023/03/23 05:36:15;;;;;;;9.25;5.40;;;12.70;99.90;;;;;;5034993;28;20032;-71
2023/03/23 05:38:45;;;;;;;6.07;4.72;;;12.60;99.90;;;;;;5035782;28;20061;-71
2023/03/23 05:41:12;;;;;;;8.55;5.50;;;12.60;99.90;;;;;;5035565;28;20044;-71
2023/03/23 05:43:38;;;;;;;8.10;5.30;;;12.60;99.90;;;;;;5035568;28;20053;-71
2023/03/23 05:46:04;;;;;;;6.15;5.25;;;12.50;99.90;;;;;;5034804;28;20039;-71
2023/03/23 05:48:30;;;;;;;9.20;5.20;;;12.50;99.90;;;;;;5035238;28;20034;-71
2023/03/23 05:50:56;;;;;;;10.40;5.32;;;12.50;99.90;;;;;;5034934;28;20125;-71
2023/03/23 05:53:23;;;;;;;9.05;4.90;;;12.50;99.90;;;;;;5035047;28;20041;-71
2023/03/23 05:55:49;;;;;;;7.30;4.72;;;12.50;99.90;;;;;;5035070;28;20390;-71
2023/03/23 05:58:15;;;;;;;8.88;5.18;;;12.50;99.90;;;;;;5034145;28;20498;-71
2023/03/23 06:00:41;;;;;;;10.65;5.13;;;12.50;99.90;;;;;;5034526;28;20052;-71
2023/03/23 06:03:07;;;;;;;9.77;5.70;;;12.50;99.90;;;;;;5034893;28;20378;-71
2023/03/23 06:05:33;;;;;;;9.48;4.93;;;12.50;99.90;;;;;;5034652;28;20037;-71
2023/03/23 06:08:00;;;;;;;8.52;4.53;;;12.50;99.90;;;;;;5034756;28;20030;-71
2023/03/23 06:10:26;;;;;;;7.05;4.78;;;12.40;99.90;;;;;;5034707;28;20033;-71
2023/03/23 06:12:52;;;;;;;6.75;5.00;;;12.40;99.90;;;;;;5024028;28;20034;-71
2023/03/23 06:15:18;;;;;;;9.57;4.47;;;12.30;99.90;;;;;;5013235;28;20034;-71
2023/03/23 06:17:44;;;;;;;8.95;4.88;;;12.40;99.90;;;;;;5014794;28;20056;-71
2023/03/23 06:20:11;;;;;;;15.55;5.50;;;12.30;99.90;;;;;;5014583;28;20034;-71
2023/03/23 06:22:37;;;;;;;8.65;5.40;;;12.30;99.90;;;;;;5014573;28;20065;-70
2023/03/23 06:25:07;;;;;;;7.05;5.45;;;12.30;99.90;;;;;;5014818;28;20037;-71
2023/03/23 06:27:35;;;;;;;10.10;5.05;;;12.30;99.90;;;;;;5014562;28;20049;-71
2023/03/23 06:30:02;;;;;;;6.60;5.10;;;12.30;99.90;;;;;;5020681;28;20044;-71
2023/03/23 06:32:28;;;;;;;10.80;5.60;;;12.30;99.90;;;;;;5033682;28;20040;-71
2023/03/23 06:34:54;;;;;;;10.88;4.90;;;12.30;99.90;;;;;;5032758;28;20029;-71
2023/03/23 06:37:21;;;;;;;9.57;5.07;;;12.30;99.90;;;;;;5034246;28;20030;-71
2023/03/23 06:39:48;;;;;;;10.55;4.85;;;12.30;99.90;;;;;;5033075;28;20041;-71
2023/03/23 06:42:14;;;;;;;8.20;4.82;;;12.30;99.90;;;;;;5034307;28;20045;-71
2023/03/23 06:44:40;;;;;;;7.93;5.20;;;12.20;99.90;;;;;;5034219;28;20044;-71
2023/03/23 06:47:07;;;;;;;9.85;4.97;;;12.20;99.90;;;;;;5033985;28;20037;-71
2023/03/23 06:49:34;;;;;;;9.05;5.50;;;12.30;99.90;;;;;;5033849;28;20495;-70
2023/03/23 06:52:01;;;;;;;11.77;5.35;;;12.20;99.90;;;;;;5032837;28;20439;-71
2023/03/23 06:54:27;;;;;;;9.35;5.40;;;12.30;99.90;;;;;;5034424;28;20393;-71
2023/03/23 06:56:53;;;;;;;8.13;4.80;;;12.30;99.90;;;;;;5033964;28;20049;-71
2023/03/23 06:59:19;;;;;;;10.20;5.47;;;12.20;99.90;;;;;;5033814;28;20475;-71
2023/03/23 07:01:46;;;;;;;6.72;4.90;;;12.30;99.90;;;;;;5033449;28;20048;-71
2023/03/23 07:04:13;;;;;;;10.07;5.10;;;12.30;99.90;;;;;;5033450;28;20029;-71
2023/03/23 07:06:39;;;;;;;10.85;5.32;;;12.40;99.90;;;;;;5033919;28;20041;-71
2023/03/23 07:09:05;;;;;;;10.65;5.32;;;12.40;99.90;;;;;;5033654;28;20038;-71
2023/03/23 07:11:32;;;;;;;8.95;5.05;;;12.40;99.90;;;;;;5034020;28;20037;-71
2023/03/23 07:13:58;;;;;;;9.57;4.95;;;12.40;99.90;;;;;;5013801;28;20041;-70
2023/03/23 07:16:24;;;;;;;10.73;5.47;;;12.50;99.90;;;;;;5013051;28;20471;-71
2023/03/23 07:18:50;;;;;;;7.32;5.20;;;12.50;99.90;;;;;;5013392;28;20042;-71
2023/03/23 07:21:16;;;;;;;11.63;6.13;;;12.50;99.90;;;;;;5013508;28;20132;-70
2023/03/23 07:23:43;;;;;;;9.15;5.60;;;12.50;99.90;;;;;;5013611;28;20053;-71
2023/03/23 07:26:09;;;;;;;11.02;5.45;;;12.50;99.90;;;;;;5012094;28;20038;-71
2023/03/23 07:28:36;;;;;;;8.52;5.03;;;12.50;99.90;;;;;;5013435;28;20057;-71
2023/03/23 07:31:02;;;;;;;7.88;5.55;;;12.60;99.90;;;;;;5027203;28;20049;-71
2023/03/23 07:33:28;;;;;;;10.57;5.18;;;12.60;99.90;;;;;;5032661;28;20040;-71
2023/03/23 07:35:54;;;;;;;9.25;5.15;;;12.60;99.90;;;;;;5033242;28;20030;-71
2023/03/23 07:38:20;;;;;;;10.18;5.53;;;12.60;99.90;;;;;;5033234;28;20509;-71
2023/03/23 07:40:47;;;;;;;9.00;5.07;;;12.60;99.90;;;;;;5032911;28;20033;-71
2023/03/23 07:43:13;;;;;;;8.27;4.75;;;12.70;99.90;;;;;;5033168;28;20049;-71
2023/03/23 07:45:39;;;;;;;9.75;5.15;;;12.70;99.90;;;;;;5032611;28;20037;-71
2023/03/23 07:48:06;;;;;;;8.00;4.95;;;12.80;99.90;;;;;;5033127;28;20033;-70
2023/03/23 07:50:32;;;;;;;15.48;5.75;;;12.80;99.90;;;;;;5033316;28;20041;-71
2023/03/23 07:52:58;;;;;;;11.68;5.40;;;12.80;99.90;;;;;;5032964;28;20048;-71
2023/03/23 07:55:25;;;;;;;9.50;5.53;;;12.90;99.90;;;;;;5032900;28;20029;-71
2023/03/23 07:57:51;;;;;;;9.18;5.40;;;12.90;99.90;;;;;;5031444;28;20052;-71
2023/03/23 08:00:19;;;;;;;14.45;5.43;;;12.90;99.90;;;;;;5032589;28;20060;-71
2023/03/23 08:02:50;;;;;;;9.32;4.95;;;12.90;99.90;;;;;;5032496;28;20042;-71
2023/03/23 08:05:17;;;;;;;8.32;5.43;;;12.90;99.90;;;;;;5033024;28;20048;-70
2023/03/23 08:07:44;;;;;;;7.25;5.35;;;12.90;99.90;;;;;;5032841;28;20041;-71
2023/03/23 08:10:11;;;;;;;14.68;5.03;;;13.00;99.90;;;;;;5032584;28;20037;-71
2023/03/23 08:12:38;;;;;;;10.70;5.88;;;13.10;99.90;;;;;;5023989;28;20029;-71
2023/03/23 08:15:06;;;;;;;11.02;5.40;;;13.10;99.90;;;;;;5012436;28;20040;-71
2023/03/23 08:17:34;;;;;;;12.40;5.50;;;13.10;99.90;;;;;;5012471;28;20038;-71
2023/03/23 08:20:00;;;;;;;14.05;5.80;;;13.10;99.90;;;;;;5012742;28;20046;-71
2023/03/23 08:22:28;;;;;;;12.23;5.70;;;13.20;99.90;;;;;;5011194;28;20499;-70
2023/03/23 08:24:55;;;;;;;14.40;6.45;;;13.20;99.90;;;;;;5012539;28;20403;-71
2023/03/23 08:27:21;;;;;;;9.02;5.40;;;13.20;99.90;;;;;;5011472;28;20562;-71
2023/03/23 08:29:48;;;;;;;14.75;5.82;;;13.20;99.90;;;;;;5016666;28;20029;-70
2023/03/23 08:32:14;;;;;;;14.15;5.40;;;13.30;99.90;;;;;;5031700;28;20033;-71
2023/03/23 08:34:42;;;;;;;12.23;6.03;;;13.30;99.90;;;;;;5032687;28;20049;-70
2023/03/23 08:37:08;;;;;;;12.45;5.28;;;13.30;99.90;;;;;;5032567;28;20419;-71
2023/03/23 08:39:34;;;;;;;12.32;5.45;;;13.40;99.90;;;;;;5031052;28;20050;-71
2023/03/23 08:42:01;;;;;;;15.32;6.05;;;13.60;99.90;;;;;;5032303;28;20459;-70
2023/03/23 08:44:27;;;;;;;17.30;6.00;;;13.70;99.90;;;;;;5032422;28;20478;-70
2023/03/23 08:46:56;;;;;;;10.60;5.70;;;13.80;99.90;;;;;;5031849;28;20056;-71
2023/03/23 08:49:23;;;;;;;11.45;5.43;;;14.00;99.90;;;;;;5032406;28;20384;-71
2023/03/23 08:51:49;;;;;;;11.73;4.90;;;14.20;99.90;;;;;;5032010;28;20033;-71
2023/03/23 08:54:16;;;;;;;8.93;5.32;;;14.40;99.90;;;;;;5032189;28;20388;-71
2023/03/23 08:56:43;;;;;;;9.35;5.97;;;14.50;99.90;;;;;;5032411;28;20514;-70
2023/03/23 08:59:09;;;;;;;16.15;6.85;;;14.60;99.90;;;;;;5031563;28;20029;-70
2023/03/23 09:01:36;;;;;;;15.63;6.85;;;14.70;99.90;;;;;;5030428;28;20493;-70
2023/03/23 09:04:02;;;;;;;12.35;5.65;;;14.70;99.90;;;;;;5032089;28;20030;-70
2023/03/23 09:06:28;;;;;;;16.38;6.40;;;14.80;99.90;;;;;;5031972;28;20489;-70
2023/03/23 09:08:55;;;;;;;12.98;5.55;;;14.80;99.90;;;;;;5032065;28;20037;-70
2023/03/23 09:11:21;;;;;;;16.00;5.20;;;14.80;99.90;;;;;;5032192;28;20042;-70
2023/03/23 09:13:47;;;;;;;15.82;6.43;;;14.80;99.90;;;;;;5013613;28;20037;-70
2023/03/23 09:16:14;;;;;;;16.70;5.68;;;14.90;99.90;;;;;;5010673;28;20402;-70
2023/03/23 09:18:40;;;;;;;15.18;5.63;;;15.00;99.90;;;;;;5012562;28;20058;-70
2023/03/23 09:21:06;;;;;;;18.65;5.63;;;15.10;99.90;;;;;;5012188;28;20030;-71
2023/03/23 09:23:32;;;;;;;14.40;5.65;;;15.10;99.90;;;;;;5011620;28;20054;-70
2023/03/23 09:26:00;;;;;;;18.60;6.20;;;15.10;99.90;;;;;;5011987;28;20037;-70
2023/03/23 09:28:27;;;;;;;17.33;6.63;;;15.10;99.90;;;;;;5011643;28;20038;-70
2023/03/23 09:30:57;;;;;;;17.35;5.70;;;15.20;99.90;;;;;;5024580;28;20041;-70
2023/03/23 09:33:23;;;;;;;16.50;6.27;;;15.20;99.90;;;;;;5034214;28;20049;-70
2023/03/23 09:35:50;;;;;;;12.38;5.00;;;15.20;99.90;;;;;;5035530;28;20026;-70
2023/03/23 09:38:16;;;;;;;13.75;5.05;;;15.30;99.90;;;;;;5035288;28;20029;-71
2023/03/23 09:41:15;;;;;;;10.55;4.78;;;15.30;99.90;;;;;;5035522;28;20036;-70
2023/03/23 09:43:48;;;;;;;13.07;5.85;;;15.30;99.90;;;;;;5034926;28;20026;-70
2023/03/23 09:46:14;;;;;;;14.30;6.40;;;15.30;99.90;;;;;;5034818;28;20041;-70
2023/03/23 09:48:58;;;;;;;10.43;5.65;;;15.40;99.90;;;;;;5035663;28;20034;-70
2023/03/23 09:51:40;;;;;;;8.93;5.40;;;15.40;99.90;;;;;;5034045;28;20017;-70
2023/03/23 09:54:33;;;;;;;7.00;4.90;;;15.50;99.90;;;;;;5034208;28;20038;-70
2023/03/23 09:57:00;;;;;;;12.13;5.18;;;15.50;99.90;;;;;;5033605;28;20040;-70
2023/03/23 09:59:51;;;;;;;11.27;5.15;;;15.50;99.90;;;;;;5033746;28;20080;-70
2023/03/23 10:02:20;;;;;;;8.83;4.57;;;15.60;99.90;;;;;;5033470;28;20377;-70
2023/03/23 10:04:52;;;;;;;10.48;4.38;;;15.70;99.90;;;;;;5033788;28;20265;-70
2023/03/23 10:07:23;;;;;;;10.27;5.47;;;15.70;99.90;;;;;;5033925;28;20033;-70
2023/03/23 10:09:52;;;;;;;11.07;4.72;;;15.80;99.90;;;;;;5017627;28;20041;-70
2023/03/23 10:12:48;;;;;;;12.40;4.85;;;15.90;99.90;;;;;;5010923;28;20034;-70
2023/03/23 10:15:20;;;;;;;9.05;4.22;;;16.00;99.90;;;;;;5014626;28;20025;-70
2023/03/23 10:17:57;;;;;;;9.70;4.55;;;16.00;99.90;;;;;;5030573;28;20489;-70
2023/03/23 10:20:45;;;;;;;9.50;4.78;;;16.00;99.90;;;;;;5013676;28;20038;-70
2023/03/23 10:23:36;;;;;;;13.40;5.00;;;15.90;99.90;;;;;;5014752;28;20057;-70
2023/03/23 10:26:33;;;;;;;8.25;4.30;;;15.90;99.90;;;;;;5014360;28;20467;-70
2023/03/23 10:29:21;;;;;;;12.07;5.45;;;16.10;99.90;;;;;;5013273;28;20030;-70
2023/03/23 10:31:51;;;;;;;11.32;5.80;;;16.20;99.90;;;;;;4993288;28;20030;-71
2023/03/23 10:34:28;;;;;;;8.65;4.60;;;16.20;99.90;;;;;;4993961;28;20448;-70
2023/03/23 10:36:56;;;;;;;12.13;5.10;;;16.30;99.90;;;;;;4993081;28;20046;-70
2023/03/23 10:39:24;;;;;;;12.57;5.13;;;16.30;99.90;;;;;;4994797;28;20073;-70
2023/03/23 10:41:50;;;;;;;12.95;5.20;;;16.30;99.90;;;;;;5009385;28;20038;-70
2023/03/23 10:44:18;;;;;;;15.18;5.60;;;16.40;99.90;;;;;;4994342;28;20046;-70
2023/03/23 10:47:06;;;;;;;15.75;5.53;;;16.40;99.90;;;;;;4994206;28;20049;-70
2023/03/23 10:49:33;;;;;;;14.32;5.82;;;16.50;99.90;;;;;;4993537;28;20383;-70
2023/03/23 10:52:20;;;;;;;14.15;5.78;;;16.50;99.90;;;;;;4993693;28;20026;-69
2023/03/23 10:54:50;;;;;;;16.95;7.53;;;16.50;99.90;;;;;;4993756;28;20042;-70
2023/03/23 10:57:28;;;;;;;13.02;5.68;;;16.60;99.90;;;;;;4994636;28;20387;-69
2023/03/23 11:00:06;;;;;;;13.93;5.78;;;16.70;99.90;;;;;;4992764;28;20038;-71
2023/03/23 11:02:35;;;;;;;16.02;5.72;;;16.70;99.90;;;;;;4992374;28;20037;-70
2023/03/23 11:05:04;;;;;;;14.55;6.13;;;16.70;99.90;;;;;;4993408;28;20030;-70
2023/03/23 11:07:32;;;;;;;13.13;5.50;;;16.70;99.90;;;;;;4994706;28;20458;-70
2023/03/23 11:10:15;;;;;;;18.08;5.85;;;16.80;99.90;;;;;;4992831;28;20035;-70
2023/03/23 11:12:44;;;;;;;11.32;5.47;;;16.80;99.90;;;;;;5002169;28;20056;-69
2023/03/23 11:15:31;;;;;;;11.73;5.60;;;16.90;99.90;;;;;;5012083;28;20049;-70
2023/03/23 11:18:02;;;;;;;11.57;4.82;;;17.00;99.90;;;;;;5012340;28;20038;-70
2023/03/23 11:20:30;;;;;;;13.05;5.65;;;17.10;99.90;;;;;;5013724;28;20039;-70
2023/03/23 11:22:56;;;;;;;13.48;5.47;;;17.00;99.90;;;;;;5013283;28;20041;-70
2023/03/23 11:25:22;;;;;;;11.57;4.90;;;17.10;99.90;;;;;;5012244;28;20026;-70
2023/03/23 11:27:49;;;;;;;11.57;5.65;;;17.10;99.90;;;;;;5012349;28;20390;-70
2023/03/23 11:30:24;;;;;;;16.23;5.75;;;17.10;99.90;;;;;;5019484;28;20034;-70
2023/03/23 11:32:52;;;;;;;20.40;9.23;;;17.20;99.90;;;;;;5031828;28;20034;-70
2023/03/23 11:35:25;;;;;;;15.32;7.00;;;17.20;99.90;;;;;;5031971;28;20041;-70
2023/03/23 11:37:54;;;;;;;11.40;6.43;;;17.20;99.90;;;;;;5031891;28;20038;-71
2023/03/23 11:40:25;;;;;;;14.48;6.07;;;17.30;99.90;;;;;;5032680;28;20470;-71
2023/03/23 11:43:00;;;;;;;11.25;5.35;;;17.30;99.90;;;;;;5031936;28;20040;-72
2023/03/23 11:45:40;;;;;;;14.13;5.30;;;17.30;99.90;;;;;;5032967;28;20026;-70
2023/03/23 11:48:13;;;;;;;12.47;6.03;;;17.40;99.90;;;;;;5033276;28;20037;-71
2023/03/23 11:51:17;;;;;;;15.65;5.82;;;17.30;99.90;;;;;;5031801;28;20277;-70
2023/03/23 11:54:04;;;;;;;16.52;5.72;;;17.30;99.90;;;;;;5033048;28;20384;-70
2023/03/23 11:56:36;;;;;;;8.32;5.55;;;17.30;99.90;;;;;;5032111;28;20471;-70
2023/03/23 11:59:04;;;;;;;17.40;6.05;;;17.20;99.90;;;;;;5032763;28;20044;-70
2023/03/23 12:01:44;;;;;;;14.65;5.72;;;17.30;99.90;;;;;;5014875;28;20029;-70
2023/03/23 12:04:28;;;;;;;15.20;6.03;;;17.30;99.90;;;;;;5032970;28;20152;-70
2023/03/23 12:07:01;;;;;;;11.10;5.90;;;17.30;99.90;;;;;;5032987;28;20033;-70
2023/03/23 12:09:51;;;;;;;12.48;6.15;;;17.30;99.90;;;;;;5032813;28;20029;-70
2023/03/23 12:12:31;;;;;;;12.93;5.80;;;17.30;99.90;;;;;;5026972;28;20030;-70
2023/03/23 12:15:19;;;;;;;17.25;6.38;;;17.30;99.90;;;;;;5011999;28;20029;-70
2023/03/23 12:17:45;;;;;;;14.27;6.65;;;17.30;99.90;;;;;;5012404;28;20506;-71
2023/03/23 12:20:21;;;;;;;17.83;6.80;;;17.30;99.90;;;;;;5012692;28;20479;-70
2023/03/23 12:23:09;;;;;;;18.27;6.60;;;17.40;99.90;;;;;;5012399;28;20507;-70
2023/03/23 12:26:07;;;;;;;14.43;5.07;;;17.50;99.90;;;;;;5011290;28;20026;-70
2023/03/23 12:28:49;;;;;;;19.25;5.97;;;17.50;99.90;;;;;;5011524;28;20034;-70
2023/03/23 12:31:25;;;;;;;13.40;5.38;;;17.50;99.90;;;;;;5026847;28;20034;-70
2023/03/23 12:34:30;;;;;;;18.10;6.57;;;17.40;99.90;;;;;;5032456;28;20509;-71
2023/03/23 12:37:14;;;;;;;16.83;6.20;;;17.40;99.90;;;;;;5027043;28;20033;-70
2023/03/23 12:39:40;;;;;;;13.55;5.53;;;17.30;99.90;;;;;;5032597;28;20060;-71
2023/03/23 12:42:19;;;;;;;14.02;5.50;;;17.30;99.90;;;;;;5032319;28;20069;-70
2023/03/23 12:45:02;;;;;;;16.70;6.05;;;17.30;99.90;;;;;;5032303;28;20021;-70
2023/03/23 12:47:41;;;;;;;13.57;5.88;;;17.30;99.90;;;;;;5030250;28;20029;-70
2023/03/23 12:50:18;;;;;;;12.70;5.50;;;17.20;99.90;;;;;;5030788;28;20044;-70
2023/03/23 12:52:57;;;;;;;18.80;6.30;;;17.20;99.90;;;;;;5031508;28;20048;-70
2023/03/23 12:55:28;;;;;;;17.27;5.88;;;17.20;99.90;;;;;;5031257;28;20037;-70
2023/03/23 12:58:09;;;;;;;17.83;6.15;;;17.20;99.90;;;;;;5032432;28;20037;-70
2023/03/23 13:00:54;;;;;;;15.93;6.50;;;17.20;99.90;;;;;;5030551;28;20560;-71